Rio Pardo, Brazil
Current Conditions -  °F | °C
As of 10:00 AM on Saturday 25 Oct 2014 (Local Time) from SBPA Reporting Station
Broken Clouds Broken Clouds  
Wind Chill: 72°   Ceiling: 1700
Heat Index: 72°   Visibility: 5mi
Dew Point: 64°   Wind: 2mph
Humidity: 78%   Direction: NA
Pressure: 29.94"   Gusts: NA
Location:  29.99°S, 52.38°W
Report Text: SBPA 251200Z VRB02KT 8000 BKN017 22/18 Q1014
Loading
Personal Weather Stations






























Interactive Weather Map
Tropical Storm Tracking
New forecast layout! Learn more

10-Day Weather Forecast

Advertisements
Track Severe Weather on mobile